Time;durP1;ratioP1;P1;durP2;ratioP2;P2;SDS_P1;SDS_P2;PMS_P1;PMS_P2;Temp;Humidity;BMP_temperature;BMP_pressure;BME280_temperature;BME280_humidity;BME280_pressure;Samples;Min_cycle;Max_cycle;Signal;HPM_P1;HPM_P2
2022/10/28 00:02:24;;;;;;;41.08;15.65;;;;;;;16.07;100.00;98609.47;5090243;28;20466;-86
2022/10/28 00:04:50;;;;;;;36.65;17.52;;;;;;;16.11;100.00;98600.03;5090008;28;20034;-85
2022/10/28 00:07:16;;;;;;;35.28;17.15;;;;;;;15.94;100.00;98599.22;5091635;28;20020;-86
2022/10/28 00:09:41;;;;;;;39.80;16.65;;;;;;;16.04;100.00;98588.78;5089796;28;20262;-85
2022/10/28 00:12:07;;;;;;;35.50;18.55;;;;;;;16.01;100.00;98599.84;5091753;28;20110;-86
2022/10/28 00:14:32;;;;;;;38.38;17.58;;;;;;;16.07;100.00;98596.25;5090123;28;20028;-86
2022/10/28 00:16:58;;;;;;;46.80;17.95;;;;;;;16.09;100.00;98598.66;5072968;28;20041;-86
2022/10/28 00:19:23;;;;;;;36.97;20.63;;;;;;;16.08;100.00;98589.91;5091215;28;20024;-85
2022/10/28 00:21:49;;;;;;;40.88;17.90;;;;;;;16.15;100.00;98583.66;5090005;28;20393;-86
2022/10/28 00:24:15;;;;;;;53.53;20.40;;;;;;;15.94;100.00;98575.41;5089896;28;20020;-86
2022/10/28 00:26:42;;;;;;;43.55;19.48;;;;;;;16.12;100.00;98579.63;5091529;28;20020;-86
2022/10/28 00:29:13;;;;;;;41.08;21.25;;;;;;;16.17;100.00;98587.66;5092246;28;20035;-86
2022/10/28 00:31:39;;;;;;;45.50;21.58;;;;;;;16.18;100.00;98580.53;5095696;28;20119;-86
2022/10/28 00:34:08;;;;;;;43.30;22.38;;;;;;;16.23;100.00;98581.41;5095958;28;20116;-86
2022/10/28 00:36:36;;;;;;;44.97;22.17;;;;;;;16.11;100.00;98584.13;5095473;28;20035;-86
2022/10/28 00:39:09;;;;;;;54.58;24.15;;;;;;;16.30;100.00;98585.72;5094821;28;20028;-86
2022/10/28 00:41:36;;;;;;;;;;;;;;;16.35;100.00;98589.25;5095301;28;20538;-87
2022/10/28 00:44:42;;;;;;;53.75;23.95;;;;;;;16.35;100.00;98588.44;5095054;28;19995;-86
2022/10/28 00:47:35;;;;;;;47.38;22.45;;;;;;;16.41;100.00;98582.19;5076946;28;20315;-86
2022/10/28 00:50:24;;;;;;;44.97;22.90;;;;;;;16.46;100.00;98590.19;5099456;28;20089;-87
2022/10/28 00:52:55;;;;;;;39.10;21.05;;;;;;;16.43;100.00;98582.72;5101456;28;20043;-86
2022/10/28 00:55:22;;;;;;;41.25;22.35;;;;;;;16.42;100.00;98589.06;5099498;28;20071;-85
2022/10/28 00:57:48;;;;;;;40.78;22.00;;;;;;;16.45;100.00;98577.16;5095810;28;20478;-86
2022/10/28 01:00:15;;;;;;;35.58;20.95;;;;;;;16.50;100.00;98574.59;5095289;28;20054;-86
2022/10/28 01:02:47;;;;;;;48.20;22.92;;;;;;;16.42;100.00;98576.63;5093503;28;20023;-86
2022/10/28 01:05:15;;;;;;;43.28;21.23;;;;;;;16.42;100.00;98571.31;5093555;28;20115;-86
2022/10/28 01:07:41;;;;;;;40.08;22.02;;;;;;;16.45;100.00;98582.47;5094765;28;20034;-85
2022/10/28 01:10:10;;;;;;;37.50;20.95;;;;;;;16.42;100.00;98587.22;5094272;28;20036;-86
2022/10/28 01:13:11;;;;;;;36.17;21.52;;;;;;;16.48;100.00;98582.78;5093099;28;20042;-85
2022/10/28 01:15:55;;;;;;;33.95;20.27;;;;;;;16.37;100.00;98567.78;5093605;28;20028;-85
2022/10/28 01:18:39;;;;;;;43.35;21.33;;;;;;;16.47;100.00;98580.38;5094810;28;20047;-87
2022/10/28 01:21:20;;;;;;;33.83;19.52;;;;;;;16.56;100.00;98576.28;5093607;28;20516;-87
2022/10/28 01:24:10;;;;;;;41.85;21.83;;;;;;;16.33;100.00;98569.34;5094482;28;20043;-86
2022/10/28 01:26:42;;;;;;;34.80;18.77;;;;;;;16.53;100.00;98566.16;5093589;28;20079;-86
2022/10/28 01:29:45;;;;;;;31.23;18.10;;;;;;;16.47;100.00;98567.13;5076004;28;20397;-86
2022/10/28 01:32:29;;;;;;;39.37;18.57;;;;;;;16.54;100.00;98555.31;5094224;28;20031;-86
2022/10/28 01:35:08;;;;;;;29.95;17.85;;;;;;;16.61;100.00;98559.66;5091983;28;20607;-85
2022/10/28 01:37:39;;;;;;;35.65;18.52;;;;;;;16.63;100.00;98560.97;5092373;28;20105;-85
2022/10/28 01:40:17;;;;;;;41.75;17.90;;;;;;;16.64;100.00;98543.25;5075568;28;20036;-86
2022/10/28 01:43:01;;;;;;;31.10;15.80;;;;;;;16.67;100.00;98542.75;5091922;28;20032;-86
2022/10/28 01:45:44;;;;;;;30.95;16.17;;;;;;;16.60;100.00;98537.63;5092480;28;20024;-84
2022/10/28 01:48:31;;;;;;;;;;;;;;;16.56;100.00;98539.19;5091336;28;20031;-85
2022/10/28 01:51:06;;;;;;;23.15;15.25;;;;;;;16.59;100.00;98541.34;5091477;28;20297;-86
2022/10/28 01:53:37;;;;;;;30.70;14.70;;;;;;;16.67;100.00;98532.94;5092301;28;20035;-85
2022/10/28 01:56:18;;;;;;;34.47;15.55;;;;;;;16.58;100.00;98529.13;5092512;28;20032;-86
2022/10/28 01:58:44;;;;;;;32.10;15.73;;;;;;;16.53;100.00;98529.88;5091797;28;20448;-86
2022/10/28 02:01:11;;;;;;;24.58;15.02;;;;;;;16.53;100.00;98523.78;5091801;28;20115;-86
2022/10/28 02:03:37;;;;;;;29.33;14.88;;;;;;;16.42;100.00;98525.50;5093375;28;20089;-86
2022/10/28 02:06:11;;;;;;;28.85;15.05;;;;;;;16.34;100.00;98534.66;5093565;28;20028;-85
2022/10/28 02:09:03;;;;;;;25.77;14.68;;;;;;;16.39;100.00;98526.78;5092500;28;20024;-87
2022/10/28 02:11:57;;;;;;;25.55;13.57;;;;;;;16.51;100.00;98523.22;5092044;28;20059;-86
2022/10/28 02:15:01;;;;;;;23.10;13.60;;;;;;;16.56;100.00;98526.72;5093356;28;20050;-86
2022/10/28 02:17:46;;;;;;;27.52;13.82;;;;;;;16.58;100.00;98528.31;5090545;28;20389;-86
2022/10/28 02:20:42;;;;;;;27.85;13.95;;;;;;;16.53;100.00;98521.13;5093440;28;20032;-86
2022/10/28 02:23:20;;;;;;;30.98;14.43;;;;;;;16.47;100.00;98514.16;5080042;28;20127;-86
2022/10/28 02:25:55;;;;;;;30.77;14.23;;;;;;;16.46;100.00;98515.19;5092597;28;20085;-86
2022/10/28 02:28:36;;;;;;;24.30;13.10;;;;;;;16.39;100.00;98495.00;5091822;28;20027;-86
2022/10/28 02:31:17;;;;;;;23.63;13.48;;;;;;;16.37;100.00;98507.69;5093245;28;20035;-86
2022/10/28 02:33:45;;;;;;;23.52;12.70;;;;;;;16.36;100.00;98502.63;5093025;28;20036;-85
2022/10/28 02:36:17;;;;;;;28.08;12.68;;;;;;;16.37;100.00;98515.63;5091688;28;20039;-86
2022/10/28 02:38:49;;;;;;;31.77;13.10;;;;;;;16.39;100.00;98505.59;5091730;28;20100;-88
2022/10/28 02:41:22;;;;;;;31.30;14.07;;;;;;;16.26;100.00;98501.47;5091318;28;20028;-88
2022/10/28 02:43:54;;;;;;;29.15;12.23;;;;;;;16.28;100.00;98498.56;5092909;28;20047;-86
2022/10/28 02:46:23;;;;;;;25.52;12.38;;;;;;;16.25;100.00;98483.16;5092693;28;20024;-86
2022/10/28 02:48:53;;;;;;;28.17;12.57;;;;;;;16.11;100.00;98480.88;5090757;28;20385;-88
2022/10/28 02:51:24;;;;;;;24.70;12.48;;;;;;;15.95;100.00;98482.50;5074191;28;20055;-87
2022/10/28 02:53:56;;;;;;;24.23;13.35;;;;;;;15.89;100.00;98486.13;5093227;28;20393;-86
2022/10/28 02:56:21;;;;;;;18.55;11.85;;;;;;;15.89;100.00;98480.03;5091042;28;20371;-86
2022/10/28 02:58:47;;;;;;;22.13;12.55;;;;;;;15.79;100.00;98473.53;5093041;28;20031;-87
2022/10/28 03:01:13;;;;;;;19.77;11.32;;;;;;;15.74;100.00;98473.47;5091332;28;20035;-86
2022/10/28 03:03:40;;;;;;;22.08;11.32;;;;;;;15.64;100.00;98468.00;5092637;28;20024;-86
2022/10/28 03:06:06;;;;;;;24.48;12.90;;;;;;;15.57;100.00;98465.53;5092512;28;20050;-86
2022/10/28 03:08:31;;;;;;;19.70;12.43;;;;;;;15.56;100.00;98461.28;5091127;28;20028;-85
2022/10/28 03:10:57;;;;;;;25.48;12.85;;;;;;;15.59;100.00;98455.50;5092221;28;20078;-86
2022/10/28 03:13:22;;;;;;;22.13;11.82;;;;;;;15.61;100.00;98447.31;5091032;28;20036;-85
2022/10/28 03:15:48;;;;;;;20.20;13.35;;;;;;;15.60;100.00;98451.81;5090829;28;20032;-85
2022/10/28 03:18:13;;;;;;;20.30;11.65;;;;;;;15.62;100.00;98448.94;5092284;28;20120;-87
2022/10/28 03:20:39;;;;;;;26.73;12.27;;;;;;;15.55;100.00;98428.75;5091567;28;20032;-86
2022/10/28 03:23:05;;;;;;;18.75;11.35;;;;;;;15.63;100.00;98424.06;5090623;28;20039;-85
2022/10/28 03:25:30;;;;;;;20.23;11.32;;;;;;;15.63;100.00;98413.50;5091650;28;20031;-86
2022/10/28 03:27:56;;;;;;;27.20;14.07;;;;;;;15.48;100.00;98411.44;5092048;28;20397;-87
2022/10/28 03:30:21;;;;;;;35.45;14.18;;;;;;;15.59;100.00;98401.81;5092494;28;20476;-86
2022/10/28 03:32:47;;;;;;;35.22;15.27;;;;;;;15.63;100.00;98409.03;5091945;28;20035;-86
2022/10/28 03:35:13;;;;;;;26.17;15.07;;;;;;;15.65;100.00;98398.19;5091758;28;20035;-86
2022/10/28 03:37:42;;;;;;;28.08;15.45;;;;;;;15.64;100.00;98388.63;5092133;28;20419;-87
2022/10/28 03:40:10;;;;;;;35.95;16.40;;;;;;;15.51;100.00;98371.28;5089671;28;20028;-86
2022/10/28 03:42:35;;;;;;;26.38;12.93;;;;;;;15.60;100.00;98376.94;5091482;28;20093;-87
2022/10/28 03:45:01;;;;;;;23.95;14.50;;;;;;;15.51;100.00;98390.56;5091913;28;20469;-87
2022/10/28 03:47:26;;;;;;;33.10;14.57;;;;;;;15.48;100.00;98396.34;5091753;28;20488;-86
2022/10/28 03:49:52;;;;;;;27.77;12.30;;;;;;;15.56;100.00;98388.03;5091832;28;20438;-86
2022/10/28 03:52:18;;;;;;;39.22;13.32;;;;;;;15.48;100.00;98375.19;5091386;28;20040;-84
2022/10/28 03:54:44;;;;;;;27.13;13.13;;;;;;;15.57;100.00;98371.09;5090939;28;20031;-86
2022/10/28 03:57:09;;;;;;;28.23;13.27;;;;;;;15.51;100.00;98366.00;5091277;28;20020;-85
2022/10/28 03:59:35;;;;;;;25.52;12.57;;;;;;;15.56;100.00;98363.41;5091279;28;20092;-85
2022/10/28 04:02:00;;;;;;;31.25;13.45;;;;;;;15.54;100.00;98350.44;5091447;28;20033;-86
2022/10/28 04:04:26;;;;;;;33.15;13.27;;;;;;;15.43;100.00;98348.69;5094802;28;20032;-85
2022/10/28 04:06:52;;;;;;;34.65;12.88;;;;;;;15.38;100.00;98343.34;5095414;28;20554;-86
2022/10/28 04:09:17;;;;;;;27.48;12.93;;;;;;;15.35;100.00;98335.88;5095368;28;20060;-85
2022/10/28 04:11:42;;;;;;;31.00;13.45;;;;;;;15.28;100.00;98328.91;5094173;28;20024;-86
2022/10/28 04:14:08;;;;;;;30.48;13.90;;;;;;;15.31;100.00;98321.53;5095689;28;20051;-86
2022/10/28 04:16:37;;;;;;;31.67;13.60;;;;;;;15.31;100.00;98322.34;5095428;28;20129;-85
2022/10/28 04:19:02;;;;;;;29.88;13.10;;;;;;;15.27;100.00;98326.53;5093764;28;20612;-85
2022/10/28 04:21:28;;;;;;;29.70;14.35;;;;;;;15.20;100.00;98308.19;5095633;28;20028;-85
2022/10/28 04:23:53;;;;;;;37.45;13.82;;;;;;;15.16;100.00;98316.84;5094662;28;20032;-84
2022/10/28 04:26:19;;;;;;;29.35;14.25;;;;;;;15.18;100.00;98312.91;5093756;28;20405;-85
2022/10/28 04:28:44;;;;;;;29.42;13.75;;;;;;;15.15;100.00;98310.75;5093606;28;20038;-85
2022/10/28 04:31:11;;;;;;;28.50;14.40;;;;;;;15.14;100.00;98309.16;5093814;28;20047;-85
2022/10/28 04:33:37;;;;;;;35.05;15.55;;;;;;;15.14;100.00;98311.81;5093454;28;20034;-84
2022/10/28 04:36:03;;;;;;;35.53;16.90;;;;;;;15.07;100.00;98300.59;5094792;28;20381;-84
2022/10/28 04:38:28;;;;;;;41.97;16.77;;;;;;;15.08;100.00;98299.53;5093052;28;20028;-84
2022/10/28 04:40:57;;;;;;;37.50;15.60;;;;;;;15.13;100.00;98304.91;5093657;28;20036;-85
2022/10/28 04:43:23;;;;;;;33.85;16.83;;;;;;;15.13;100.00;98294.31;5094823;28;20047;-85
2022/10/28 04:45:51;;;;;;;39.15;18.02;;;;;;;15.16;100.00;98299.16;5092102;28;20107;-85
2022/10/28 04:48:17;;;;;;;39.45;18.10;;;;;;;15.16;100.00;98293.84;5094544;28;20459;-85
2022/10/28 04:50:43;;;;;;;45.92;18.90;;;;;;;15.19;100.00;98293.38;5092978;28;20040;-85
2022/10/28 04:53:09;;;;;;;43.72;20.70;;;;;;;15.17;100.00;98290.19;5092694;28;20023;-85
2022/10/28 04:55:35;;;;;;;48.55;19.77;;;;;;;15.22;100.00;98292.06;5094302;28;20085;-85
2022/10/28 04:58:00;;;;;;;41.83;19.92;;;;;;;15.23;100.00;98294.47;5094019;28;20036;-83
2022/10/28 05:00:27;;;;;;;36.92;18.98;;;;;;;15.27;100.00;98300.88;5094300;28;20479;-84
2022/10/28 05:02:53;;;;;;;39.92;19.88;;;;;;;15.25;100.00;98291.59;5092907;28;20084;-84
2022/10/28 05:05:20;;;;;;;44.08;20.08;;;;;;;15.27;100.00;98292.16;5092481;28;20397;-85
2022/10/28 05:07:45;;;;;;;38.47;19.40;;;;;;;15.29;100.00;98284.78;5094011;28;20039;-84
2022/10/28 05:10:14;;;;;;;49.20;22.02;;;;;;;15.28;100.00;98286.59;5092890;28;20465;-84
2022/10/28 05:12:46;;;;;;;59.40;24.75;;;;;;;15.24;100.00;98284.72;5092973;28;20032;-85
2022/10/28 05:15:13;;;;;;;52.35;23.48;;;;;;;15.33;100.00;98290.34;5092066;28;20107;-85
2022/10/28 05:17:40;;;;;;;56.38;23.83;;;;;;;15.36;100.00;98274.81;5093167;28;20030;-86
2022/10/28 05:20:08;;;;;;;46.03;22.92;;;;;;;15.37;100.00;98272.97;5080472;28;20028;-86
2022/10/28 05:22:33;;;;;;;43.30;21.63;;;;;;;15.35;100.00;98265.28;5092777;28;20051;-86
2022/10/28 05:24:59;;;;;;;48.30;22.77;;;;;;;15.41;100.00;98261.66;5093460;28;20024;-85
2022/10/28 05:27:25;;;;;;;52.13;24.02;;;;;;;15.42;100.00;98244.75;5094478;28;20389;-85
2022/10/28 05:29:50;;;;;;;52.47;25.60;;;;;;;15.51;100.00;98252.25;5092826;28;20035;-86
2022/10/28 05:32:16;;;;;;;60.42;24.80;;;;;;;15.50;100.00;98250.66;5094299;28;20035;-87
2022/10/28 05:34:41;;;;;;;49.30;23.83;;;;;;;15.56;100.00;98244.38;5093817;28;20042;-86
2022/10/28 05:37:07;;;;;;;49.72;23.88;;;;;;;15.48;100.00;98247.47;5094052;28;20428;-86
2022/10/28 05:39:32;;;;;;;52.40;24.30;;;;;;;15.52;100.00;98254.63;5092757;28;20502;-86
2022/10/28 05:41:58;;;;;;;43.42;23.30;;;;;;;15.62;100.00;98253.19;5094033;28;20040;-86
2022/10/28 05:44:23;;;;;;;46.60;22.20;;;;;;;15.65;100.00;98268.56;5092792;28;20081;-87
2022/10/28 05:46:49;;;;;;;60.47;26.75;;;;;;;15.61;100.00;98256.88;5095069;28;20028;-87
2022/10/28 05:49:19;;;;;;;56.60;25.05;;;;;;;15.54;100.00;98263.16;5093206;28;20040;-86
2022/10/28 05:51:47;;;;;;;48.25;24.33;;;;;;;15.65;100.00;98257.97;5093591;28;20082;-85
2022/10/28 05:54:12;;;;;;;55.47;26.27;;;;;;;15.63;100.00;98257.41;5093934;28;20031;-86
2022/10/28 05:56:38;;;;;;;49.47;24.05;;;;;;;15.71;100.00;98256.97;5093771;28;20082;-88
2022/10/28 05:59:04;;;;;;;45.33;23.05;;;;;;;15.79;100.00;98261.03;5092632;28;20031;-86
2022/10/28 06:01:29;;;;;;;60.28;30.35;;;;;;;15.78;100.00;98247.03;5094344;28;20050;-87
2022/10/28 06:03:55;;;;;;;70.75;32.60;;;;;;;15.82;100.00;98244.66;5093537;28;20118;-87
2022/10/28 06:06:24;;;;;;;61.13;26.70;;;;;;;15.78;100.00;98249.66;5075789;28;20027;-87
2022/10/28 06:08:49;;;;;;;50.97;23.77;;;;;;;15.77;100.00;98255.19;5093999;28;20060;-87
2022/10/28 06:11:15;;;;;;;53.20;26.00;;;;;;;15.73;100.00;98254.91;5093822;28;20039;-87
2022/10/28 06:13:40;;;;;;;49.78;27.77;;;;;;;15.81;100.00;98243.88;5075647;28;20110;-85
2022/10/28 06:16:06;;;;;;;43.78;21.27;;;;;;;15.76;100.00;98253.59;5091649;28;20028;-86
2022/10/28 06:18:31;;;;;;;44.03;18.77;;;;;;;15.72;100.00;98242.69;5075109;28;20032;-87
2022/10/28 06:20:58;;;;;;;33.10;14.90;;;;;;;15.83;100.00;98233.84;5093673;28;20028;-87
2022/10/28 06:23:25;;;;;;;37.72;14.90;;;;;;;15.82;100.00;98258.69;5092129;28;20027;-87
2022/10/28 06:25:57;;;;;;;32.45;14.75;;;;;;;15.91;100.00;98260.91;5092358;28;20024;-86
2022/10/28 06:28:22;;;;;;;27.42;12.05;;;;;;;15.88;100.00;98246.31;5093189;28;20028;-86
2022/10/28 06:30:48;;;;;;;24.95;11.95;;;;;;;15.85;100.00;98247.63;5093042;28;20047;-86
2022/10/28 06:33:13;;;;;;;25.65;11.80;;;;;;;15.84;100.00;98251.31;5092542;28;20800;-85
2022/10/28 06:35:39;;;;;;;34.97;12.25;;;;;;;15.76;100.00;98237.72;5072461;28;20020;-85
2022/10/28 06:38:05;;;;;;;24.27;10.57;;;;;;;15.73;100.00;98233.75;5091121;28;20101;-86
2022/10/28 06:40:30;;;;;;;19.45;10.40;;;;;;;15.67;100.00;98235.53;5092397;28;20023;-84
2022/10/28 06:43:01;;;;;;;16.35;9.32;;;;;;;15.80;100.00;98223.75;5074322;28;20063;-85
2022/10/28 06:45:28;;;;;;;23.48;9.65;;;;;;;15.82;100.00;98219.00;5090012;28;20039;-85
2022/10/28 06:48:04;;;;;;;15.98;8.30;;;;;;;15.95;100.00;98209.91;5091658;28;20035;-86
2022/10/28 06:50:33;;;;;;;21.17;8.43;;;;;;;15.94;100.00;98191.63;5089568;28;20034;-85
2022/10/28 06:52:59;;;;;;;18.40;7.75;;;;;;;15.93;100.00;98195.34;5092179;28;20043;-85
2022/10/28 06:55:26;;;;;;;15.45;7.60;;;;;;;15.92;100.00;98197.16;5090631;28;20385;-85
2022/10/28 06:57:52;;;;;;;15.80;6.93;;;;;;;16.04;100.00;98204.16;5092186;28;20035;-86
2022/10/28 07:00:18;;;;;;;16.08;7.10;;;;;;;16.03;100.00;98199.94;5090915;28;20032;-86
2022/10/28 07:02:44;;;;;;;16.95;7.28;;;;;;;16.07;100.00;98185.13;5091913;28;20073;-85
2022/10/28 07:05:09;;;;;;;15.88;7.72;;;;;;;16.03;100.00;98184.03;5107792;28;20409;-83
2022/10/28 07:07:36;;;;;;;21.98;7.82;;;;;;;16.17;100.00;98193.16;5091855;28;20457;-81
2022/10/28 07:10:04;;;;;;;25.58;8.45;;;;;;;16.17;100.00;98189.72;5091642;28;20032;-82
2022/10/28 07:12:30;;;;;;;17.75;8.80;;;;;;;16.10;100.00;98187.28;5092673;28;20028;-81
2022/10/28 07:14:55;;;;;;;18.48;9.35;;;;;;;16.26;100.00;98173.13;5107181;28;20051;-82
2022/10/28 07:17:21;;;;;;;20.58;8.55;;;;;;;16.16;100.00;98186.25;5073211;28;20119;-82
2022/10/28 07:19:46;;;;;;;21.40;8.45;;;;;;;16.28;100.00;98181.59;5091679;28;20474;-82
2022/10/28 07:22:12;;;;;;;19.63;7.85;;;;;;;16.33;100.00;98170.25;5091697;28;20419;-82
2022/10/28 07:24:37;;;;;;;21.02;8.50;;;;;;;16.29;100.00;98177.09;5091703;28;20039;-83
2022/10/28 07:27:03;;;;;;;26.30;8.98;;;;;;;16.37;100.00;98176.63;5091408;28;20035;-85
2022/10/28 07:29:28;;;;;;;22.15;8.30;;;;;;;16.49;100.00;98159.75;5091243;28;21968;-85
2022/10/28 07:31:54;;;;;;;22.70;10.13;;;;;;;16.59;100.00;98180.22;5093723;28;20024;-86
2022/10/28 07:34:20;;;;;;;18.63;9.13;;;;;;;16.63;100.00;98184.75;5075636;28;20370;-86
2022/10/28 07:36:53;;;;;;;26.27;10.15;;;;;;;16.56;100.00;98168.28;5092418;28;20077;-85
2022/10/28 07:39:20;;;;;;;15.00;7.05;;;;;;;16.64;100.00;98185.56;5090973;28;20119;-86
2022/10/28 07:41:46;;;;;;;19.40;7.45;;;;;;;16.64;100.00;98182.91;5091181;28;20048;-84
2022/10/28 07:44:12;;;;;;;22.38;7.32;;;;;;;16.75;100.00;98183.78;5090059;28;20036;-88
2022/10/28 07:46:38;;;;;;;21.23;8.13;;;;;;;16.82;100.00;98184.34;5089844;28;20028;-87
2022/10/28 07:49:04;;;;;;;16.45;9.15;;;;;;;16.80;100.00;98194.38;5107460;28;20485;-84
2022/10/28 07:51:30;;;;;;;15.27;6.60;;;;;;;16.81;100.00;98199.44;5090860;28;20055;-84
2022/10/28 07:53:56;;;;;;;13.25;7.40;;;;;;;16.82;100.00;98197.59;5090980;28;20539;-85
2022/10/28 07:56:22;;;;;;;19.55;6.88;;;;;;;16.96;100.00;98201.38;5090303;28;20119;-86
2022/10/28 07:58:47;;;;;;;19.08;8.00;;;;;;;16.83;100.00;98193.88;5089113;28;20462;-83
2022/10/28 08:01:16;;;;;;;12.10;6.63;;;;;;;16.97;100.00;98213.56;5089698;28;20039;-83
2022/10/28 08:03:42;;;;;;;14.70;6.00;;;;;;;17.05;100.00;98211.50;5088662;28;20035;-83
2022/10/28 08:06:11;;;;;;;15.07;5.90;;;;;;;16.82;100.00;98229.38;5088053;28;20027;-83
2022/10/28 08:08:38;;;;;;;11.05;5.25;;;;;;;17.01;100.00;98239.59;5086759;28;20057;-84
2022/10/28 08:11:14;;;;;;;18.83;6.30;;;;;;;16.98;100.00;98246.16;5088099;28;20024;-82
2022/10/28 08:13:41;;;;;;;12.65;5.15;;;;;;;16.85;100.00;98265.97;5090215;28;20028;-84
2022/10/28 08:16:07;;;;;;;11.88;5.07;;;;;;;16.90;100.00;98271.34;5088295;28;20025;-84
2022/10/28 08:18:34;;;;;;;9.73;3.95;;;;;;;16.88;100.00;98257.50;5090682;28;20622;-85
2022/10/28 08:21:01;;;;;;;10.40;3.97;;;;;;;17.11;100.00;98287.41;5090996;28;20028;-84
2022/10/28 08:23:27;;;;;;;12.25;4.32;;;;;;;16.97;100.00;98282.50;5090108;28;20035;-85
2022/10/28 08:25:53;;;;;;;8.45;3.45;;;;;;;17.09;100.00;98300.09;5090952;28;20091;-85
2022/10/28 08:28:19;;;;;;;10.63;3.53;;;;;;;16.52;100.00;98297.78;5089371;28;20107;-83
2022/10/28 08:30:46;;;;;;;7.35;3.08;;;;;;;16.92;100.00;98298.38;5089883;28;20539;-84
2022/10/28 08:33:13;;;;;;;11.38;2.97;;;;;;;16.74;100.00;98293.47;5089813;28;20024;-84
2022/10/28 08:35:39;;;;;;;6.88;2.22;;;;;;;16.72;100.00;98306.97;5088498;28;20024;-86
2022/10/28 08:38:08;;;;;;;8.35;2.30;;;;;;;16.91;100.00;98304.72;5092394;28;20542;-85
2022/10/28 08:40:46;;;;;;;6.55;2.10;;;;;;;16.98;100.00;98325.69;5089689;28;20039;-87
2022/10/28 08:43:27;;;;;;;10.85;2.35;;;;;;;17.05;100.00;98328.97;5090139;28;20721;-87
2022/10/28 08:46:14;;;;;;;5.22;2.00;;;;;;;17.03;100.00;98330.28;5089937;28;20136;-88
2022/10/28 08:48:41;;;;;;;3.05;1.70;;;;;;;17.13;100.00;98333.00;5091826;28;20035;-88
2022/10/28 08:51:23;;;;;;;3.38;1.75;;;;;;;16.92;100.00;98353.22;5093817;28;20055;-86
2022/10/28 08:53:57;;;;;;;3.35;1.70;;;;;;;17.01;100.00;98338.50;5095568;28;20035;-88
2022/10/28 08:56:50;;;;;;;5.85;1.70;;;;;;;16.96;100.00;98343.72;5094176;28;20081;-89
2022/10/28 08:59:26;;;;;;;4.18;2.38;;;;;;;16.78;100.00;98343.03;5095335;28;20028;-87
2022/10/28 09:02:25;;;;;;;4.13;1.60;;;;;;;16.97;100.00;98343.47;5096160;28;20069;-88
2022/10/28 09:05:06;;;;;;;8.20;1.73;;;;;;;16.76;100.00;98347.00;5075647;28;20504;-85
2022/10/28 09:07:35;;;;;;;3.45;1.60;;;;;;;16.73;100.00;98371.38;5094670;28;20432;-87
2022/10/28 09:10:03;;;;;;;5.47;1.60;;;;;;;16.83;100.00;98371.44;5096508;28;20035;-87
2022/10/28 09:12:49;;;;;;;6.65;1.70;;;;;;;16.92;100.00;98391.16;5095297;28;20028;-86
2022/10/28 09:15:46;;;;;;;4.25;1.10;;;;;;;16.68;100.00;98375.56;5094487;28;20023;-88
2022/10/28 09:18:27;;;;;;;3.90;1.30;;;;;;;17.02;100.00;98390.47;5050623;28;20047;-86
2022/10/28 09:20:55;;;;;;;3.78;1.23;;;;;;;17.06;100.00;98380.94;5094235;28;20067;-86
2022/10/28 09:23:34;;;;;;;8.70;1.33;;;;;;;16.84;100.00;98391.59;5093543;28;20032;-86
2022/10/28 09:26:06;;;;;;;2.95;1.55;;;;;;;16.64;100.00;98400.97;5093461;28;20039;-86
2022/10/28 09:29:06;;;;;;;5.00;1.10;;;;;;;16.99;100.00;98405.03;5094693;28;20489;-85
2022/10/28 09:31:46;;;;;;;6.82;1.95;;;;;;;16.68;100.00;98423.25;5092572;28;20024;-87
2022/10/28 09:34:29;;;;;;;2.28;1.15;;;;;;;16.63;100.00;98425.84;5094362;28;20036;-86
2022/10/28 09:37:20;;;;;;;4.28;1.33;;;;;;;16.57;100.00;98432.16;5091846;28;20024;-87
2022/10/28 09:39:53;;;;;;;1.92;1.00;;;;;;;16.36;100.00;98424.00;5093561;28;20450;-85
2022/10/28 09:42:27;;;;;;;7.82;1.38;;;;;;;16.22;100.00;98441.28;5093472;28;20031;-86
2022/10/28 09:45:03;;;;;;;2.58;1.00;;;;;;;16.31;100.00;98455.72;5094158;28;20071;-85
2022/10/28 09:47:39;;;;;;;1.83;1.00;;;;;;;16.05;100.00;98460.66;5076340;28;20040;-86
2022/10/28 09:50:14;;;;;;;3.25;1.10;;;;;;;16.35;100.00;98461.31;5093016;28;20032;-86
2022/10/28 09:52:49;;;;;;;3.65;0.90;;;;;;;16.07;100.00;98463.88;5093238;28;20047;-86
2022/10/28 09:55:20;;;;;;;3.30;0.90;;;;;;;16.18;100.00;98471.97;5094705;28;20103;-85
2022/10/28 09:57:48;;;;;;;3.33;1.23;;;;;;;16.30;100.00;98469.97;5094235;28;20031;-85
2022/10/28 10:00:15;;;;;;;3.95;0.90;;;;;;;16.74;100.00;98471.03;5109896;28;20060;-87
2022/10/28 10:02:44;;;;;;;0.80;0.60;;;;;;;16.59;100.00;98483.03;5109112;28;20036;-86
2022/10/28 10:05:15;;;;;;;0.77;0.77;;;;;;;16.47;100.00;98485.00;5092931;28;20107;-86
2022/10/28 10:07:55;;;;;;;2.17;0.90;;;;;;;16.74;100.00;98494.88;5093921;28;20090;-86
2022/10/28 10:10:24;;;;;;;1.20;0.80;;;;;;;16.06;100.00;98491.38;5090774;28;20024;-86
2022/10/28 10:12:51;;;;;;;2.05;0.90;;;;;;;16.51;100.00;98508.13;5094004;28;20049;-86
2022/10/28 10:15:32;;;;;;;1.98;1.10;;;;;;;16.28;100.00;98515.25;5092970;28;20028;-86
2022/10/28 10:18:01;;;;;;;3.78;1.48;;;;;;;16.32;100.00;98512.94;5092570;28;20024;-86
2022/10/28 10:20:43;;;;;;;2.25;0.90;;;;;;;16.38;100.00;98535.78;5092867;28;20066;-86
2022/10/28 10:23:31;;;;;;;1.42;0.93;;;;;;;16.50;100.00;98532.19;5093232;28;20028;-89
2022/10/28 10:26:16;;;;;;;0.80;0.70;;;;;;;16.69;100.00;98538.78;5093926;28;20043;-87
2022/10/28 10:28:46;;;;;;;0.85;0.85;;;;;;;16.39;100.00;98542.69;5072857;28;20043;-86
2022/10/28 10:31:28;;;;;;;1.35;0.88;;;;;;;16.22;100.00;98563.09;5091259;28;20427;-86
2022/10/28 10:33:57;;;;;;;4.00;1.42;;;;;;;16.40;100.00;98560.16;5093304;28;20032;-86
2022/10/28 10:36:30;;;;;;;1.80;1.00;;;;;;;16.53;100.00;98579.41;5091396;28;20060;-83
2022/10/28 10:38:58;;;;;;;1.67;0.90;;;;;;;16.28;100.00;98585.94;5107287;28;20363;-82
2022/10/28 10:41:33;;;;;;;3.42;1.13;;;;;;;16.28;100.00;98589.41;5092591;28;20489;-82
2022/10/28 10:43:59;;;;;;;2.90;1.10;;;;;;;16.11;100.00;98600.03;5094242;28;20546;-84
2022/10/28 10:46:26;;;;;;;3.33;0.90;;;;;;;16.10;100.00;98608.19;5095180;28;20020;-84
2022/10/28 10:49:13;;;;;;;1.42;0.90;;;;;;;16.38;100.00;98609.94;5090804;28;20068;-82
2022/10/28 10:52:12;;;;;;;0.98;0.80;;;;;;;16.10;100.00;98624.09;5091405;28;20071;-82
2022/10/28 10:54:37;;;;;;;2.40;1.00;;;;;;;15.95;100.00;98609.56;5080327;28;20036;-82
2022/10/28 10:57:17;;;;;;;1.90;1.15;;;;;;;15.92;100.00;98617.19;5091498;28;20404;-82
2022/10/28 10:59:47;;;;;;;2.40;1.17;;;;;;;16.08;100.00;98619.03;5086246;28;20055;-81
2022/10/28 11:02:24;;;;;;;5.10;1.75;;;;;;;16.09;100.00;98612.69;5091128;28;20043;-81
2022/10/28 11:04:58;;;;;;;2.70;0.90;;;;;;;15.75;100.00;98617.13;5091067;28;20051;-81
2022/10/28 11:07:24;;;;;;;2.03;0.98;;;;;;;15.63;100.00;98630.44;5089224;28;20028;-82
2022/10/28 11:09:50;;;;;;;0.93;0.90;;;;;;;16.03;100.00;98620.81;5091418;28;20024;-79
2022/10/28 11:12:25;;;;;;;3.40;1.00;;;;;;;16.07;100.00;98645.75;5090830;28;20401;-81
2022/10/28 11:14:59;;;;;;;3.80;1.20;;;;;;;15.98;100.00;98637.41;5090484;28;20513;-80
2022/10/28 11:17:28;;;;;;;4.07;1.00;;;;;;;15.76;100.00;98642.53;5090733;28;20039;-80
2022/10/28 11:19:56;;;;;;;3.05;1.17;;;;;;;15.79;100.00;98647.34;5091385;28;20039;-80
2022/10/28 11:22:32;;;;;;;1.90;1.05;;;;;;;15.54;100.00;98665.22;5090415;28;20036;-79
2022/10/28 11:25:19;;;;;;;1.98;1.17;;;;;;;16.12;100.00;98659.88;5090335;28;20113;-80
2022/10/28 11:27:54;;;;;;;3.92;1.30;;;;;;;16.04;100.00;98662.13;5089247;28;20028;-80
2022/10/28 11:30:31;;;;;;;1.17;1.10;;;;;;;16.15;100.00;98657.78;5090132;28;20032;-79
2022/10/28 11:33:16;;;;;;;1.80;1.17;;;;;;;15.84;100.00;98674.72;5091422;28;20028;-80